sensor_id;sensor_type;location;lat;lon;timestamp;temperature;humidity
23116;DHT22;11727;52.134;5.052;2024-03-08T00:00:17;3.20;99.90
23116;DHT22;11727;52.134;5.052;2024-03-08T00:02:46;3.20;99.90
23116;DHT22;11727;52.134;5.052;2024-03-08T00:05:12;3.20;99.90
23116;DHT22;11727;52.134;5.052;2024-03-08T00:07:38;3.20;99.90
23116;DHT22;11727;52.134;5.052;2024-03-08T00:10:04;3.10;99.90
23116;DHT22;11727;52.134;5.052;2024-03-08T00:12:30;3.10;99.90
23116;DHT22;11727;52.134;5.052;2024-03-08T00:14:56;3.10;99.90
23116;DHT22;11727;52.134;5.052;2024-03-08T00:17:21;3.10;99.90
23116;DHT22;11727;52.134;5.052;2024-03-08T00:19:48;3.00;99.90
23116;DHT22;11727;52.134;5.052;2024-03-08T00:22:15;3.00;99.90
23116;DHT22;11727;52.134;5.052;2024-03-08T00:24:41;3.00;99.90
23116;DHT22;11727;52.134;5.052;2024-03-08T00:27:06;3.00;99.90
23116;DHT22;11727;52.134;5.052;2024-03-08T00:29:32;2.90;99.90
23116;DHT22;11727;52.134;5.052;2024-03-08T00:31:57;2.90;99.90
23116;DHT22;11727;52.134;5.052;2024-03-08T00:34:23;2.90;99.90
23116;DHT22;11727;52.134;5.052;2024-03-08T00:36:49;2.90;99.90
23116;DHT22;11727;52.134;5.052;2024-03-08T00:39:14;2.80;99.90
23116;DHT22;11727;52.134;5.052;2024-03-08T00:41:40;2.90;99.90
23116;DHT22;11727;52.134;5.052;2024-03-08T00:44:05;2.90;99.90
23116;DHT22;11727;52.134;5.052;2024-03-08T00:46:31;2.80;99.90
23116;DHT22;11727;52.134;5.052;2024-03-08T00:48:56;2.80;99.90
23116;DHT22;11727;52.134;5.052;2024-03-08T00:51:22;2.80;99.90
23116;DHT22;11727;52.134;5.052;2024-03-08T00:53:48;2.80;99.90
23116;DHT22;11727;52.134;5.052;2024-03-08T00:56:13;2.80;99.90
23116;DHT22;11727;52.134;5.052;2024-03-08T00:58:39;2.70;99.90
23116;DHT22;11727;52.134;5.052;2024-03-08T01:01:04;2.70;99.90
23116;DHT22;11727;52.134;5.052;2024-03-08T01:03:33;2.70;99.90
23116;DHT22;11727;52.134;5.052;2024-03-08T01:05:59;2.70;99.90
23116;DHT22;11727;52.134;5.052;2024-03-08T01:08:27;2.70;99.90
23116;DHT22;11727;52.134;5.052;2024-03-08T01:10:53;2.60;99.90
23116;DHT22;11727;52.134;5.052;2024-03-08T01:13:18;2.60;99.90
23116;DHT22;11727;52.134;5.052;2024-03-08T01:15:44;2.60;99.90
23116;DHT22;11727;52.134;5.052;2024-03-08T01:18:10;2.60;99.90
23116;DHT22;11727;52.134;5.052;2024-03-08T01:20:36;2.50;99.90
23116;DHT22;11727;52.134;5.052;2024-03-08T01:23:01;2.60;99.90
23116;DHT22;11727;52.134;5.052;2024-03-08T01:25:27;2.60;99.90
23116;DHT22;11727;52.134;5.052;2024-03-08T01:27:52;2.50;99.90
23116;DHT22;11727;52.134;5.052;2024-03-08T01:30:19;2.50;99.90
23116;DHT22;11727;52.134;5.052;2024-03-08T01:32:45;2.50;99.90
23116;DHT22;11727;52.134;5.052;2024-03-08T01:35:10;2.50;99.90
23116;DHT22;11727;52.134;5.052;2024-03-08T01:37:36;2.50;99.90
23116;DHT22;11727;52.134;5.052;2024-03-08T01:40:02;2.50;99.90
23116;DHT22;11727;52.134;5.052;2024-03-08T01:42:28;2.50;99.90
23116;DHT22;11727;52.134;5.052;2024-03-08T01:44:54;2.40;99.90
23116;DHT22;11727;52.134;5.052;2024-03-08T01:47:21;2.40;99.90
23116;DHT22;11727;52.134;5.052;2024-03-08T01:49:51;2.40;99.90
23116;DHT22;11727;52.134;5.052;2024-03-08T01:52:17;2.40;99.90
23116;DHT22;11727;52.134;5.052;2024-03-08T01:54:46;2.40;99.90
23116;DHT22;11727;52.134;5.052;2024-03-08T01:57:11;2.30;99.90
23116;DHT22;11727;52.134;5.052;2024-03-08T01:59:37;2.30;99.90
23116;DHT22;11727;52.134;5.052;2024-03-08T02:02:03;2.30;99.90
23116;DHT22;11727;52.134;5.052;2024-03-08T02:04:31;2.30;99.90
23116;DHT22;11727;52.134;5.052;2024-03-08T02:06:57;2.30;99.90
23116;DHT22;11727;52.134;5.052;2024-03-08T02:09:25;2.30;99.90
23116;DHT22;11727;52.134;5.052;2024-03-08T02:11:51;2.20;99.90
23116;DHT22;11727;52.134;5.052;2024-03-08T02:14:17;2.20;99.90
23116;DHT22;11727;52.134;5.052;2024-03-08T02:16:44;2.20;99.90
23116;DHT22;11727;52.134;5.052;2024-03-08T02:19:09;2.10;99.90
23116;DHT22;11727;52.134;5.052;2024-03-08T02:21:35;2.10;99.90
23116;DHT22;11727;52.134;5.052;2024-03-08T02:24:01;2.10;99.90
23116;DHT22;11727;52.134;5.052;2024-03-08T02:26:27;2.10;99.90
23116;DHT22;11727;52.134;5.052;2024-03-08T02:28:52;2.10;99.90
23116;DHT22;11727;52.134;5.052;2024-03-08T02:31:18;2.10;99.90
23116;DHT22;11727;52.134;5.052;2024-03-08T02:33:43;2.00;99.90
23116;DHT22;11727;52.134;5.052;2024-03-08T02:36:09;2.00;99.90
23116;DHT22;11727;52.134;5.052;2024-03-08T02:38:35;2.00;99.90
23116;DHT22;11727;52.134;5.052;2024-03-08T02:41:00;2.00;99.90
23116;DHT22;11727;52.134;5.052;2024-03-08T02:43:26;2.00;99.90
23116;DHT22;11727;52.134;5.052;2024-03-08T02:45:51;1.90;99.90
23116;DHT22;11727;52.134;5.052;2024-03-08T02:48:20;1.90;99.90
23116;DHT22;11727;52.134;5.052;2024-03-08T02:50:47;1.90;99.90
23116;DHT22;11727;52.134;5.052;2024-03-08T02:53:12;1.80;99.90
23116;DHT22;11727;52.134;5.052;2024-03-08T02:55:38;1.80;99.90
23116;DHT22;11727;52.134;5.052;2024-03-08T02:58:04;1.80;99.90
23116;DHT22;11727;52.134;5.052;2024-03-08T03:00:30;1.80;99.90
23116;DHT22;11727;52.134;5.052;2024-03-08T03:02:59;1.80;99.90
23116;DHT22;11727;52.134;5.052;2024-03-08T03:05:25;1.80;99.90
23116;DHT22;11727;52.134;5.052;2024-03-08T03:07:51;1.70;99.90
23116;DHT22;11727;52.134;5.052;2024-03-08T03:10:17;1.70;99.90
23116;DHT22;11727;52.134;5.052;2024-03-08T03:12:46;1.70;99.90
23116;DHT22;11727;52.134;5.052;2024-03-08T03:15:13;1.70;99.90
23116;DHT22;11727;52.134;5.052;2024-03-08T03:17:39;1.60;99.90
23116;DHT22;11727;52.134;5.052;2024-03-08T03:20:08;1.60;99.90
23116;DHT22;11727;52.134;5.052;2024-03-08T03:22:39;1.70;99.90
23116;DHT22;11727;52.134;5.052;2024-03-08T03:25:06;1.60;99.90
23116;DHT22;11727;52.134;5.052;2024-03-08T03:27:32;1.60;99.90
23116;DHT22;11727;52.134;5.052;2024-03-08T03:29:58;1.60;99.90
23116;DHT22;11727;52.134;5.052;2024-03-08T03:32:23;1.60;99.90
23116;DHT22;11727;52.134;5.052;2024-03-08T03:34:49;1.60;99.90
23116;DHT22;11727;52.134;5.052;2024-03-08T03:37:20;1.50;99.90
23116;DHT22;11727;52.134;5.052;2024-03-08T03:39:46;1.50;99.90
23116;DHT22;11727;52.134;5.052;2024-03-08T03:42:17;1.50;99.90
23116;DHT22;11727;52.134;5.052;2024-03-08T03:44:49;1.50;99.90
23116;DHT22;11727;52.134;5.052;2024-03-08T03:47:15;1.50;99.90
23116;DHT22;11727;52.134;5.052;2024-03-08T03:49:41;1.40;99.90
23116;DHT22;11727;52.134;5.052;2024-03-08T03:52:06;1.40;99.90
23116;DHT22;11727;52.134;5.052;2024-03-08T03:54:32;1.40;99.90
23116;DHT22;11727;52.134;5.052;2024-03-08T03:56:59;1.40;99.90
23116;DHT22;11727;52.134;5.052;2024-03-08T03:59:26;1.40;99.90
23116;DHT22;11727;52.134;5.052;2024-03-08T04:01:52;1.40;99.90
23116;DHT22;11727;52.134;5.052;2024-03-08T04:04:18;1.30;99.90
23116;DHT22;11727;52.134;5.052;2024-03-08T04:06:43;1.30;99.90
23116;DHT22;11727;52.134;5.052;2024-03-08T04:09:10;1.30;99.90
23116;DHT22;11727;52.134;5.052;2024-03-08T04:11:36;1.30;99.90
23116;DHT22;11727;52.134;5.052;2024-03-08T04:14:02;1.30;99.90
23116;DHT22;11727;52.134;5.052;2024-03-08T04:16:27;1.20;99.90
23116;DHT22;11727;52.134;5.052;2024-03-08T04:18:53;1.20;99.90
23116;DHT22;11727;52.134;5.052;2024-03-08T04:21:18;1.20;99.90
23116;DHT22;11727;52.134;5.052;2024-03-08T04:23:45;1.20;99.90
23116;DHT22;11727;52.134;5.052;2024-03-08T04:26:10;1.20;99.90
23116;DHT22;11727;52.134;5.052;2024-03-08T04:28:36;1.20;99.90
23116;DHT22;11727;52.134;5.052;2024-03-08T04:31:05;1.20;99.90
23116;DHT22;11727;52.134;5.052;2024-03-08T04:33:32;1.20;99.90
23116;DHT22;11727;52.134;5.052;2024-03-08T04:35:57;1.20;99.90
23116;DHT22;11727;52.134;5.052;2024-03-08T04:38:23;1.20;99.90
23116;DHT22;11727;52.134;5.052;2024-03-08T04:40:50;1.20;99.90
23116;DHT22;11727;52.134;5.052;2024-03-08T04:43:15;1.20;99.90
23116;DHT22;11727;52.134;5.052;2024-03-08T04:45:44;1.20;99.90
23116;DHT22;11727;52.134;5.052;2024-03-08T04:48:09;1.20;99.90
23116;DHT22;11727;52.134;5.052;2024-03-08T04:50:35;1.10;99.90
23116;DHT22;11727;52.134;5.052;2024-03-08T04:53:00;1.20;99.90
23116;DHT22;11727;52.134;5.052;2024-03-08T04:55:26;1.20;99.90
23116;DHT22;11727;52.134;5.052;2024-03-08T04:57:51;1.20;99.90
23116;DHT22;11727;52.134;5.052;2024-03-08T05:00:18;1.10;99.90
23116;DHT22;11727;52.134;5.052;2024-03-08T05:02:44;1.10;99.90
23116;DHT22;11727;52.134;5.052;2024-03-08T05:05:10;1.10;99.90
23116;DHT22;11727;52.134;5.052;2024-03-08T05:07:40;1.10;99.90
23116;DHT22;11727;52.134;5.052;2024-03-08T05:10:06;1.10;99.90
23116;DHT22;11727;52.134;5.052;2024-03-08T05:12:35;1.10;99.90
23116;DHT22;11727;52.134;5.052;2024-03-08T05:15:01;1.10;99.90
23116;DHT22;11727;52.134;5.052;2024-03-08T05:17:26;1.10;99.90
23116;DHT22;11727;52.134;5.052;2024-03-08T05:19:53;1.10;99.90
23116;DHT22;11727;52.134;5.052;2024-03-08T05:22:18;1.10;99.90
23116;DHT22;11727;52.134;5.052;2024-03-08T05:24:44;1.10;99.90
23116;DHT22;11727;52.134;5.052;2024-03-08T05:27:11;1.10;99.90
23116;DHT22;11727;52.134;5.052;2024-03-08T05:29:38;1.10;99.90
23116;DHT22;11727;52.134;5.052;2024-03-08T05:32:03;1.10;99.90
23116;DHT22;11727;52.134;5.052;2024-03-08T05:34:29;1.10;99.90
23116;DHT22;11727;52.134;5.052;2024-03-08T05:36:55;1.10;99.90
23116;DHT22;11727;52.134;5.052;2024-03-08T05:39:20;1.10;99.90
23116;DHT22;11727;52.134;5.052;2024-03-08T05:41:46;1.10;99.90
23116;DHT22;11727;52.134;5.052;2024-03-08T05:44:12;1.10;99.90
23116;DHT22;11727;52.134;5.052;2024-03-08T05:46:38;1.10;99.90
23116;DHT22;11727;52.134;5.052;2024-03-08T05:49:04;1.00;99.90
23116;DHT22;11727;52.134;5.052;2024-03-08T05:51:34;1.00;99.90
23116;DHT22;11727;52.134;5.052;2024-03-08T05:54:03;1.00;99.90
23116;DHT22;11727;52.134;5.052;2024-03-08T05:56:29;1.00;99.90
23116;DHT22;11727;52.134;5.052;2024-03-08T05:58:54;1.00;99.90
23116;DHT22;11727;52.134;5.052;2024-03-08T06:01:20;1.10;99.90
23116;DHT22;11727;52.134;5.052;2024-03-08T06:03:47;1.10;99.90
23116;DHT22;11727;52.134;5.052;2024-03-08T06:06:14;1.00;99.90
23116;DHT22;11727;52.134;5.052;2024-03-08T06:08:39;1.10;99.90
23116;DHT22;11727;52.134;5.052;2024-03-08T06:11:05;1.10;99.90
23116;DHT22;11727;52.134;5.052;2024-03-08T06:13:33;1.00;99.90
23116;DHT22;11727;52.134;5.052;2024-03-08T06:15:59;1.10;99.90
23116;DHT22;11727;52.134;5.052;2024-03-08T06:18:26;1.00;99.90
23116;DHT22;11727;52.134;5.052;2024-03-08T06:20:51;1.10;99.90
23116;DHT22;11727;52.134;5.052;2024-03-08T06:23:17;1.00;99.90
23116;DHT22;11727;52.134;5.052;2024-03-08T06:25:46;1.10;99.90
23116;DHT22;11727;52.134;5.052;2024-03-08T06:28:11;1.10;99.90
23116;DHT22;11727;52.134;5.052;2024-03-08T06:30:37;1.10;99.90
23116;DHT22;11727;52.134;5.052;2024-03-08T06:33:02;1.10;99.90
23116;DHT22;11727;52.134;5.052;2024-03-08T06:35:28;1.10;99.90
23116;DHT22;11727;52.134;5.052;2024-03-08T06:37:53;1.10;99.90
23116;DHT22;11727;52.134;5.052;2024-03-08T06:40:19;1.10;99.90
23116;DHT22;11727;52.134;5.052;2024-03-08T06:42:45;1.20;99.90
23116;DHT22;11727;52.134;5.052;2024-03-08T06:45:10;1.20;99.90
23116;DHT22;11727;52.134;5.052;2024-03-08T06:47:37;1.30;99.90
23116;DHT22;11727;52.134;5.052;2024-03-08T06:50:03;1.30;99.90
23116;DHT22;11727;52.134;5.052;2024-03-08T06:52:29;1.40;99.90
23116;DHT22;11727;52.134;5.052;2024-03-08T06:54:55;1.50;99.90
23116;DHT22;11727;52.134;5.052;2024-03-08T06:57:22;1.50;99.90
23116;DHT22;11727;52.134;5.052;2024-03-08T06:59:48;1.60;99.90
23116;DHT22;11727;52.134;5.052;2024-03-08T07:02:14;1.70;99.90
23116;DHT22;11727;52.134;5.052;2024-03-08T07:04:39;1.70;99.90
23116;DHT22;11727;52.134;5.052;2024-03-08T07:07:05;1.80;99.90
23116;DHT22;11727;52.134;5.052;2024-03-08T07:09:37;1.80;99.90
23116;DHT22;11727;52.134;5.052;2024-03-08T07:12:03;1.90;99.90
23116;DHT22;11727;52.134;5.052;2024-03-08T07:14:29;1.90;99.90
23116;DHT22;11727;52.134;5.052;2024-03-08T07:16:56;2.00;99.90
23116;DHT22;11727;52.134;5.052;2024-03-08T07:19:21;2.10;99.90
23116;DHT22;11727;52.134;5.052;2024-03-08T07:21:47;2.20;99.90
23116;DHT22;11727;52.134;5.052;2024-03-08T07:24:13;2.30;99.90
23116;DHT22;11727;52.134;5.052;2024-03-08T07:26:41;2.40;99.90
23116;DHT22;11727;52.134;5.052;2024-03-08T07:29:07;2.40;99.90
23116;DHT22;11727;52.134;5.052;2024-03-08T07:31:33;2.50;99.90
23116;DHT22;11727;52.134;5.052;2024-03-08T07:34:17;2.60;99.90
23116;DHT22;11727;52.134;5.052;2024-03-08T07:36:43;2.70;99.90
23116;DHT22;11727;52.134;5.052;2024-03-08T07:39:09;2.80;99.90
23116;DHT22;11727;52.134;5.052;2024-03-08T07:41:37;2.90;99.90
23116;DHT22;11727;52.134;5.052;2024-03-08T07:44:06;3.00;99.90
23116;DHT22;11727;52.134;5.052;2024-03-08T07:46:31;3.00;99.90
23116;DHT22;11727;52.134;5.052;2024-03-08T07:48:59;3.10;99.90
23116;DHT22;11727;52.134;5.052;2024-03-08T07:51:25;3.20;99.90
23116;DHT22;11727;52.134;5.052;2024-03-08T07:53:50;3.30;99.90
23116;DHT22;11727;52.134;5.052;2024-03-08T07:56:16;3.30;99.90
23116;DHT22;11727;52.134;5.052;2024-03-08T07:58:46;3.40;99.90
23116;DHT22;11727;52.134;5.052;2024-03-08T08:01:18;3.50;99.90
23116;DHT22;11727;52.134;5.052;2024-03-08T08:03:44;3.60;99.90
23116;DHT22;11727;52.134;5.052;2024-03-08T08:06:09;3.60;99.90
23116;DHT22;11727;52.134;5.052;2024-03-08T08:08:35;3.70;99.90
23116;DHT22;11727;52.134;5.052;2024-03-08T08:11:01;3.80;99.90
23116;DHT22;11727;52.134;5.052;2024-03-08T08:13:28;3.80;99.90
23116;DHT22;11727;52.134;5.052;2024-03-08T08:15:57;3.90;99.90
23116;DHT22;11727;52.134;5.052;2024-03-08T08:18:23;4.00;99.90
23116;DHT22;11727;52.134;5.052;2024-03-08T08:20:51;4.10;99.90
23116;DHT22;11727;52.134;5.052;2024-03-08T08:23:17;4.20;99.90
23116;DHT22;11727;52.134;5.052;2024-03-08T08:25:45;4.30;99.90
23116;DHT22;11727;52.134;5.052;2024-03-08T08:28:10;4.30;99.90
23116;DHT22;11727;52.134;5.052;2024-03-08T08:30:38;4.40;99.90
23116;DHT22;11727;52.134;5.052;2024-03-08T08:33:03;4.50;99.90
23116;DHT22;11727;52.134;5.052;2024-03-08T08:35:31;4.60;99.90
23116;DHT22;11727;52.134;5.052;2024-03-08T08:37:56;4.70;99.90
23116;DHT22;11727;52.134;5.052;2024-03-08T08:40:24;4.90;99.90
23116;DHT22;11727;52.134;5.052;2024-03-08T08:42:51;5.10;99.90
23116;DHT22;11727;52.134;5.052;2024-03-08T08:45:18;5.30;99.90
23116;DHT22;11727;52.134;5.052;2024-03-08T08:47:44;5.40;99.90
23116;DHT22;11727;52.134;5.052;2024-03-08T08:50:10;5.50;99.90
23116;DHT22;11727;52.134;5.052;2024-03-08T08:52:37;5.70;99.90
23116;DHT22;11727;52.134;5.052;2024-03-08T08:55:03;5.80;99.90
23116;DHT22;11727;52.134;5.052;2024-03-08T08:57:29;5.90;99.90
23116;DHT22;11727;52.134;5.052;2024-03-08T08:59:56;6.00;99.90
23116;DHT22;11727;52.134;5.052;2024-03-08T09:02:22;6.00;99.90
23116;DHT22;11727;52.134;5.052;2024-03-08T09:04:48;6.00;99.90
23116;DHT22;11727;52.134;5.052;2024-03-08T09:07:13;6.10;99.90
23116;DHT22;11727;52.134;5.052;2024-03-08T09:09:39;6.20;99.90
23116;DHT22;11727;52.134;5.052;2024-03-08T09:12:05;6.20;99.90
23116;DHT22;11727;52.134;5.052;2024-03-08T09:14:30;6.10;99.90
23116;DHT22;11727;52.134;5.052;2024-03-08T09:16:56;6.10;99.90
23116;DHT22;11727;52.134;5.052;2024-03-08T09:19:21;5.90;99.90
23116;DHT22;11727;52.134;5.052;2024-03-08T09:21:50;5.90;99.90
23116;DHT22;11727;52.134;5.052;2024-03-08T09:24:16;5.90;99.90
23116;DHT22;11727;52.134;5.052;2024-03-08T09:26:42;6.00;99.90
23116;DHT22;11727;52.134;5.052;2024-03-08T09:29:08;6.20;99.90
23116;DHT22;11727;52.134;5.052;2024-03-08T09:31:36;6.40;99.90
23116;DHT22;11727;52.134;5.052;2024-03-08T09:34:03;6.70;99.90
23116;DHT22;11727;52.134;5.052;2024-03-08T09:36:29;6.90;99.90
23116;DHT22;11727;52.134;5.052;2024-03-08T09:38:55;7.10;99.90
23116;DHT22;11727;52.134;5.052;2024-03-08T09:41:20;7.30;99.90
23116;DHT22;11727;52.134;5.052;2024-03-08T09:43:46;7.50;99.90
23116;DHT22;11727;52.134;5.052;2024-03-08T09:46:12;7.80;99.90
23116;DHT22;11727;52.134;5.052;2024-03-08T09:48:39;8.00;99.90
23116;DHT22;11727;52.134;5.052;2024-03-08T09:51:06;8.00;99.90
23116;DHT22;11727;52.134;5.052;2024-03-08T09:53:33;8.20;99.90
23116;DHT22;11727;52.134;5.052;2024-03-08T09:55:58;8.30;99.90
23116;DHT22;11727;52.134;5.052;2024-03-08T09:58:24;8.40;99.90
23116;DHT22;11727;52.134;5.052;2024-03-08T10:00:55;8.50;99.90
23116;DHT22;11727;52.134;5.052;2024-03-08T10:03:27;8.40;99.90
23116;DHT22;11727;52.134;5.052;2024-03-08T10:05:52;8.50;99.90
23116;DHT22;11727;52.134;5.052;2024-03-08T10:08:21;8.60;99.90
23116;DHT22;11727;52.134;5.052;2024-03-08T10:10:47;8.80;99.90
23116;DHT22;11727;52.134;5.052;2024-03-08T10:13:13;8.90;99.90
23116;DHT22;11727;52.134;5.052;2024-03-08T10:15:39;9.00;99.90
23116;DHT22;11727;52.134;5.052;2024-03-08T10:18:05;9.20;99.90
23116;DHT22;11727;52.134;5.052;2024-03-08T10:20:31;9.20;99.90
23116;DHT22;11727;52.134;5.052;2024-03-08T10:23:02;9.20;99.90
23116;DHT22;11727;52.134;5.052;2024-03-08T10:25:32;9.10;99.90
23116;DHT22;11727;52.134;5.052;2024-03-08T10:27:57;9.20;99.90
23116;DHT22;11727;52.134;5.052;2024-03-08T10:30:23;9.20;99.90
23116;DHT22;11727;52.134;5.052;2024-03-08T10:32:49;9.40;99.90
23116;DHT22;11727;52.134;5.052;2024-03-08T10:35:14;9.40;99.90
23116;DHT22;11727;52.134;5.052;2024-03-08T10:40:07;9.60;99.90
23116;DHT22;11727;52.134;5.052;2024-03-08T10:42:47;9.70;99.90
23116;DHT22;11727;52.134;5.052;2024-03-08T10:50:41;9.80;99.90
23116;DHT22;11727;52.134;5.052;2024-03-08T10:53:07;9.80;99.90
23116;DHT22;11727;52.134;5.052;2024-03-08T10:55:34;10.00;99.90
23116;DHT22;11727;52.134;5.052;2024-03-08T10:58:02;10.00;99.90
23116;DHT22;11727;52.134;5.052;2024-03-08T11:00:27;10.00;99.90
23116;DHT22;11727;52.134;5.052;2024-03-08T11:02:53;10.00;99.90
23116;DHT22;11727;52.134;5.052;2024-03-08T11:05:32;10.10;99.90
23116;DHT22;11727;52.134;5.052;2024-03-08T11:08:01;10.20;99.90
23116;DHT22;11727;52.134;5.052;2024-03-08T11:10:27;10.30;99.90
23116;DHT22;11727;52.134;5.052;2024-03-08T11:12:53;10.50;99.90
23116;DHT22;11727;52.134;5.052;2024-03-08T11:15:18;10.70;99.90
23116;DHT22;11727;52.134;5.052;2024-03-08T11:17:44;10.90;99.90
23116;DHT22;11727;52.134;5.052;2024-03-08T11:20:11;11.10;99.90
23116;DHT22;11727;52.134;5.052;2024-03-08T11:22:50;11.10;99.90
23116;DHT22;11727;52.134;5.052;2024-03-08T11:28:19;11.20;99.90
23116;DHT22;11727;52.134;5.052;2024-03-08T11:31:22;11.20;99.90
23116;DHT22;11727;52.134;5.052;2024-03-08T11:33:31;11.20;99.90
23116;DHT22;11727;52.134;5.052;2024-03-08T11:38:28;11.00;99.90
23116;DHT22;11727;52.134;5.052;2024-03-08T11:40:56;11.00;99.90
23116;DHT22;11727;52.134;5.052;2024-03-08T11:43:22;10.90;99.90
23116;DHT22;11727;52.134;5.052;2024-03-08T11:45:47;10.90;99.90
23116;DHT22;11727;52.134;5.052;2024-03-08T11:48:13;10.90;99.90
23116;DHT22;11727;52.134;5.052;2024-03-08T11:50:39;10.90;99.90
23116;DHT22;11727;52.134;5.052;2024-03-08T11:53:05;10.90;99.90
23116;DHT22;11727;52.134;5.052;2024-03-08T11:55:33;11.00;99.90
23116;DHT22;11727;52.134;5.052;2024-03-08T11:58:02;10.90;99.90
23116;DHT22;11727;52.134;5.052;2024-03-08T12:00:27;11.00;99.90
23116;DHT22;11727;52.134;5.052;2024-03-08T12:03:06;11.00;99.90
23116;DHT22;11727;52.134;5.052;2024-03-08T12:05:32;11.00;99.90
23116;DHT22;11727;52.134;5.052;2024-03-08T12:07:58;11.10;99.90
23116;DHT22;11727;52.134;5.052;2024-03-08T12:10:24;11.10;99.90
23116;DHT22;11727;52.134;5.052;2024-03-08T12:12:53;11.10;99.90
23116;DHT22;11727;52.134;5.052;2024-03-08T12:15:20;11.20;99.90
23116;DHT22;11727;52.134;5.052;2024-03-08T12:17:47;11.30;99.90
23116;DHT22;11727;52.134;5.052;2024-03-08T12:20:17;11.30;99.90
23116;DHT22;11727;52.134;5.052;2024-03-08T12:22:45;11.20;99.90
23116;DHT22;11727;52.134;5.052;2024-03-08T12:25:11;11.10;99.90
23116;DHT22;11727;52.134;5.052;2024-03-08T12:27:38;11.20;99.90
23116;DHT22;11727;52.134;5.052;2024-03-08T12:32:46;11.30;99.90
23116;DHT22;11727;52.134;5.052;2024-03-08T12:35:12;11.40;99.90
23116;DHT22;11727;52.134;5.052;2024-03-08T12:37:39;11.40;99.90
23116;DHT22;11727;52.134;5.052;2024-03-08T12:40:06;11.40;99.90
23116;DHT22;11727;52.134;5.052;2024-03-08T12:42:32;11.50;99.90
23116;DHT22;11727;52.134;5.052;2024-03-08T12:44:59;11.50;99.90
23116;DHT22;11727;52.134;5.052;2024-03-08T12:47:26;11.50;99.90
23116;DHT22;11727;52.134;5.052;2024-03-08T12:49:54;11.50;99.90
23116;DHT22;11727;52.134;5.052;2024-03-08T12:52:20;11.40;99.90
23116;DHT22;11727;52.134;5.052;2024-03-08T12:54:45;11.40;99.90
23116;DHT22;11727;52.134;5.052;2024-03-08T12:57:12;11.40;99.90
23116;DHT22;11727;52.134;5.052;2024-03-08T12:59:38;11.30;99.90
23116;DHT22;11727;52.134;5.052;2024-03-08T13:02:05;11.20;99.90
23116;DHT22;11727;52.134;5.052;2024-03-08T13:04:36;11.20;99.90
23116;DHT22;11727;52.134;5.052;2024-03-08T13:07:02;11.40;99.90
23116;DHT22;11727;52.134;5.052;2024-03-08T13:09:27;11.60;99.90
23116;DHT22;11727;52.134;5.052;2024-03-08T13:11:53;11.40;99.90
23116;DHT22;11727;52.134;5.052;2024-03-08T13:14:20;11.30;99.90
23116;DHT22;11727;52.134;5.052;2024-03-08T13:16:46;11.30;99.90
23116;DHT22;11727;52.134;5.052;2024-03-08T13:19:13;11.30;99.90
23116;DHT22;11727;52.134;5.052;2024-03-08T13:21:39;11.30;99.90
23116;DHT22;11727;52.134;5.052;2024-03-08T13:24:04;11.30;99.90
23116;DHT22;11727;52.134;5.052;2024-03-08T13:26:30;11.40;99.90
23116;DHT22;11727;52.134;5.052;2024-03-08T13:28:59;11.50;99.90
23116;DHT22;11727;52.134;5.052;2024-03-08T13:31:24;11.80;99.90
23116;DHT22;11727;52.134;5.052;2024-03-08T13:33:50;11.90;99.90
23116;DHT22;11727;52.134;5.052;2024-03-08T13:36:17;12.00;99.90
23116;DHT22;11727;52.134;5.052;2024-03-08T13:38:47;12.00;99.90
23116;DHT22;11727;52.134;5.052;2024-03-08T13:41:13;12.10;99.90
23116;DHT22;11727;52.134;5.052;2024-03-08T13:43:46;11.90;99.90
23116;DHT22;11727;52.134;5.052;2024-03-08T13:46:15;11.80;99.90
23116;DHT22;11727;52.134;5.052;2024-03-08T13:48:40;11.70;99.90
23116;DHT22;11727;52.134;5.052;2024-03-08T13:51:06;11.50;99.90
23116;DHT22;11727;52.134;5.052;2024-03-08T13:53:33;11.50;99.90
23116;DHT22;11727;52.134;5.052;2024-03-08T13:56:01;11.40;99.90
23116;DHT22;11727;52.134;5.052;2024-03-08T13:58:26;11.40;99.90
23116;DHT22;11727;52.134;5.052;2024-03-08T14:00:52;11.50;99.90
23116;DHT22;11727;52.134;5.052;2024-03-08T14:03:18;11.60;99.90
23116;DHT22;11727;52.134;5.052;2024-03-08T14:05:43;11.70;99.90
23116;DHT22;11727;52.134;5.052;2024-03-08T14:08:10;11.60;99.90
23116;DHT22;11727;52.134;5.052;2024-03-08T14:10:37;11.50;99.90
23116;DHT22;11727;52.134;5.052;2024-03-08T14:13:03;11.50;99.90
23116;DHT22;11727;52.134;5.052;2024-03-08T14:15:33;11.50;99.90
23116;DHT22;11727;52.134;5.052;2024-03-08T14:18:00;11.50;99.90
23116;DHT22;11727;52.134;5.052;2024-03-08T14:20:26;11.60;99.90
23116;DHT22;11727;52.134;5.052;2024-03-08T14:22:52;11.60;99.90
23116;DHT22;11727;52.134;5.052;2024-03-08T14:25:18;11.40;99.90
23116;DHT22;11727;52.134;5.052;2024-03-08T14:27:45;11.40;99.90
23116;DHT22;11727;52.134;5.052;2024-03-08T14:30:11;11.40;99.90
23116;DHT22;11727;52.134;5.052;2024-03-08T14:32:37;11.50;99.90
23116;DHT22;11727;52.134;5.052;2024-03-08T14:35:06;11.40;99.90
23116;DHT22;11727;52.134;5.052;2024-03-08T14:37:32;11.30;99.90
23116;DHT22;11727;52.134;5.052;2024-03-08T14:39:57;11.40;99.90
23116;DHT22;11727;52.134;5.052;2024-03-08T14:42:23;11.40;99.90
23116;DHT22;11727;52.134;5.052;2024-03-08T14:44:50;11.40;99.90
23116;DHT22;11727;52.134;5.052;2024-03-08T14:47:17;11.50;99.90
23116;DHT22;11727;52.134;5.052;2024-03-08T14:49:43;11.40;99.90
23116;DHT22;11727;52.134;5.052;2024-03-08T14:52:08;11.40;99.90
23116;DHT22;11727;52.134;5.052;2024-03-08T14:54:52;11.20;99.90
23116;DHT22;11727;52.134;5.052;2024-03-08T14:57:18;11.20;99.90
23116;DHT22;11727;52.134;5.052;2024-03-08T14:59:44;11.20;99.90
23116;DHT22;11727;52.134;5.052;2024-03-08T15:02:10;11.10;99.90
23116;DHT22;11727;52.134;5.052;2024-03-08T15:04:35;11.30;99.90
23116;DHT22;11727;52.134;5.052;2024-03-08T15:07:01;11.40;99.90
23116;DHT22;11727;52.134;5.052;2024-03-08T15:09:27;11.20;99.90
23116;DHT22;11727;52.134;5.052;2024-03-08T15:11:53;11.20;99.90
23116;DHT22;11727;52.134;5.052;2024-03-08T15:14:20;11.20;99.90
23116;DHT22;11727;52.134;5.052;2024-03-08T15:16:45;11.30;99.90
23116;DHT22;11727;52.134;5.052;2024-03-08T15:19:13;11.30;99.90
23116;DHT22;11727;52.134;5.052;2024-03-08T15:21:40;11.30;99.90
23116;DHT22;11727;52.134;5.052;2024-03-08T15:24:08;11.20;99.90
23116;DHT22;11727;52.134;5.052;2024-03-08T15:26:43;11.20;99.90
23116;DHT22;11727;52.134;5.052;2024-03-08T15:29:08;11.10;99.90
23116;DHT22;11727;52.134;5.052;2024-03-08T15:31:34;11.10;99.90
23116;DHT22;11727;52.134;5.052;2024-03-08T15:34:00;11.10;99.90
23116;DHT22;11727;52.134;5.052;2024-03-08T15:36:32;11.00;99.90
23116;DHT22;11727;52.134;5.052;2024-03-08T15:39:01;10.90;99.90
23116;DHT22;11727;52.134;5.052;2024-03-08T15:41:28;10.90;99.90
23116;DHT22;11727;52.134;5.052;2024-03-08T15:43:54;10.80;99.90
23116;DHT22;11727;52.134;5.052;2024-03-08T15:46:21;10.70;99.90
23116;DHT22;11727;52.134;5.052;2024-03-08T15:48:48;10.70;99.90
23116;DHT22;11727;52.134;5.052;2024-03-08T15:51:14;10.60;99.90
23116;DHT22;11727;52.134;5.052;2024-03-08T15:53:40;10.60;99.90